createdAt,value
2018-06-25T00:00:03.820Z,16.67
2018-06-25T00:02:32.923Z,17.97
2018-06-25T00:05:01.786Z,16.13
2018-06-25T00:07:30.694Z,13.13
2018-06-25T00:10:01.768Z,11.57
2018-06-25T00:12:28.564Z,14.87
2018-06-25T00:14:57.550Z,17.97
2018-06-25T00:17:26.380Z,13.67
2018-06-25T00:19:55.318Z,14.80
2018-06-25T00:22:24.321Z,15.87
2018-06-25T00:24:53.224Z,13.23
2018-06-25T00:27:22.145Z,15.47
2018-06-25T00:29:51.066Z,13.70
2018-06-25T00:32:20.192Z,14.33
2018-06-25T00:34:49.166Z,16.23
2018-06-25T00:37:18.080Z,15.23
2018-06-25T00:39:48.712Z,16.33
2018-06-25T00:42:17.614Z,14.40
2018-06-25T00:44:46.583Z,14.53
2018-06-25T00:47:15.486Z,13.03
2018-06-25T00:49:44.412Z,12.73
2018-06-25T00:52:13.386Z,12.67
2018-06-25T00:54:42.348Z,15.40
2018-06-25T00:57:11.184Z,12.00
2018-06-25T00:59:54.051Z,16.77
2018-06-25T01:02:23.068Z,18.27
2018-06-25T01:04:51.958Z,13.83
2018-06-25T01:07:21.026Z,13.47
2018-06-25T01:09:50.053Z,17.87
2018-06-25T01:12:18.939Z,15.87
2018-06-25T01:14:47.825Z,11.73
2018-06-25T01:17:16.702Z,13.37
2018-06-25T01:19:45.684Z,15.53
2018-06-25T01:22:14.553Z,16.30
2018-06-25T01:24:43.496Z,13.27
2018-06-25T01:27:12.386Z,14.50
2018-06-25T01:29:42.146Z,16.67
2018-06-25T01:32:11.058Z,17.50
2018-06-25T01:34:39.982Z,15.10
2018-06-25T01:37:08.918Z,15.23
2018-06-25T01:39:37.778Z,16.70
2018-06-25T01:42:06.655Z,13.27
2018-06-25T01:44:35.544Z,15.03
2018-06-25T01:47:04.424Z,20.10
2018-06-25T01:49:33.293Z,17.00
2018-06-25T01:52:02.215Z,15.75
2018-06-25T01:54:31.226Z,17.98
2018-06-25T01:57:00.122Z,14.93
2018-06-25T01:59:29.079Z,14.63
2018-06-25T02:01:58.098Z,12.50
2018-06-25T02:04:26.876Z,17.20
2018-06-25T02:06:55.830Z,16.63
2018-06-25T02:09:24.725Z,13.83
2018-06-25T02:11:53.639Z,15.50
2018-06-25T02:14:22.559Z,14.73
2018-06-25T02:16:51.592Z,14.47
2018-06-25T02:19:23.094Z,18.03
2018-06-25T02:21:52.018Z,15.03
2018-06-25T02:24:20.924Z,19.47
2018-06-25T02:26:49.908Z,16.83
2018-06-25T02:29:18.723Z,14.10
2018-06-25T02:31:47.652Z,14.00
2018-06-25T02:34:19.114Z,18.83
2018-06-25T02:36:48.064Z,19.57
2018-06-25T02:39:16.956Z,14.20
2018-06-25T02:41:45.941Z,16.63
2018-06-25T02:44:14.900Z,18.45
2018-06-25T02:46:43.743Z,18.83
2018-06-25T02:49:12.645Z,19.63
2018-06-25T02:51:41.557Z,17.93
2018-06-25T02:54:10.431Z,17.73
2018-06-25T02:56:39.371Z,16.53
2018-06-25T02:59:08.381Z,19.83
2018-06-25T03:01:40.228Z,17.47
2018-06-25T03:04:09.135Z,17.93
2018-06-25T03:06:37.977Z,17.63
2018-06-25T03:09:08.679Z,17.20
2018-06-25T03:11:37.486Z,19.83
2018-06-25T03:14:06.519Z,17.13
2018-06-25T03:16:35.608Z,18.00
2018-06-25T03:19:04.730Z,17.73
2018-06-25T03:21:33.654Z,20.40
2018-06-25T03:24:05.719Z,18.20
2018-06-25T03:26:34.792Z,24.07
2018-06-25T03:29:03.635Z,21.53
2018-06-25T03:31:32.573Z,18.90
2018-06-25T03:34:01.494Z,15.47
2018-06-25T03:36:30.428Z,20.45
2018-06-25T03:38:59.306Z,15.83
2018-06-25T03:41:28.199Z,18.20
2018-06-25T03:43:57.053Z,16.03
2018-06-25T03:46:25.978Z,18.30
2018-06-25T03:48:55.012Z,14.50
2018-06-25T03:51:23.958Z,18.17
2018-06-25T03:53:52.948Z,15.72
2018-06-25T03:56:21.886Z,19.60
2018-06-25T03:58:50.740Z,15.23
2018-06-25T04:01:19.694Z,16.67
2018-06-25T04:03:48.603Z,17.37
2018-06-25T04:06:17.461Z,14.03
2018-06-25T04:08:46.374Z,15.67
2018-06-25T04:11:15.294Z,12.70
2018-06-25T04:13:44.156Z,14.53
2018-06-25T04:16:13.079Z,15.17
2018-06-25T04:18:41.994Z,16.47
2018-06-25T04:21:11.065Z,12.27
2018-06-25T04:23:40.123Z,12.60
2018-06-25T04:26:09.006Z,12.53
2018-06-25T04:28:37.910Z,15.33
2018-06-25T04:31:06.794Z,19.17
2018-06-25T04:33:35.715Z,14.50
2018-06-25T04:36:04.662Z,17.37
2018-06-25T04:38:35.934Z,17.23
2018-06-25T04:41:04.809Z,14.93
2018-06-25T04:43:33.743Z,12.97
2018-06-25T04:46:02.589Z,15.87
2018-06-25T04:48:31.364Z,16.90
2018-06-25T04:51:00.198Z,13.53
2018-06-25T04:53:29.069Z,13.70
2018-06-25T04:55:57.943Z,14.87
2018-06-25T04:58:26.820Z,14.47
2018-06-25T05:00:55.707Z,14.00
2018-06-25T05:03:24.577Z,12.70
2018-06-25T05:05:53.523Z,14.10
2018-06-25T05:08:24.919Z,12.83
2018-06-25T05:10:53.788Z,10.73
2018-06-25T05:13:22.659Z,15.23
2018-06-25T05:15:51.549Z,13.30
2018-06-25T05:18:20.454Z,12.23
2018-06-25T05:20:49.347Z,14.13
2018-06-25T05:23:18.321Z,15.13
2018-06-25T05:25:47.488Z,14.23
2018-06-25T05:28:16.371Z,11.73
2018-06-25T05:30:45.294Z,10.73
2018-06-25T05:33:14.202Z,12.58
2018-06-25T05:35:43.071Z,11.00
2018-06-25T05:38:11.983Z,15.40
2018-06-25T05:40:41.001Z,9.60
2018-06-25T05:43:09.785Z,13.13
2018-06-25T05:45:38.664Z,13.30
2018-06-25T05:48:13.555Z,13.70
2018-06-25T05:50:42.468Z,9.83
2018-06-25T05:53:11.366Z,12.13
2018-06-25T05:55:40.228Z,11.13
2018-06-25T05:58:09.149Z,10.93
2018-06-25T06:00:38.053Z,11.40
2018-06-25T06:03:07.001Z,10.73
2018-06-25T06:05:35.908Z,13.40
2018-06-25T06:08:04.805Z,8.90
2018-06-25T06:10:33.795Z,9.77
2018-06-25T06:13:02.696Z,11.57
2018-06-25T06:15:31.575Z,8.87
2018-06-25T06:18:00.476Z,10.23
2018-06-25T06:20:29.368Z,11.93
2018-06-25T06:22:58.250Z,9.00
2018-06-25T06:25:27.175Z,15.33
2018-06-25T06:27:56.136Z,14.67
2018-06-25T06:30:25.043Z,12.57
2018-06-25T06:32:57.042Z,12.97
2018-06-25T06:35:25.899Z,11.07
2018-06-25T06:37:54.770Z,11.57
2018-06-25T06:40:23.635Z,12.03
2018-06-25T06:42:52.504Z,11.77
2018-06-25T06:45:21.446Z,11.43
2018-06-25T06:47:50.219Z,10.97
2018-06-25T06:50:19.137Z,11.63
2018-06-25T06:52:48.019Z,12.87
2018-06-25T06:55:17.035Z,11.97
2018-06-25T06:57:45.910Z,11.77
2018-06-25T07:00:14.809Z,10.27
2018-06-25T07:02:43.676Z,9.17
2018-06-25T07:05:12.553Z,9.93
2018-06-25T07:07:41.454Z,9.63
2018-06-25T07:10:10.405Z,9.33
2018-06-25T07:12:39.230Z,11.87
2018-06-25T07:15:08.108Z,8.40
2018-06-25T07:17:36.994Z,11.00
2018-06-25T07:20:06.002Z,10.13
2018-06-25T07:22:34.845Z,11.73
2018-06-25T07:25:03.782Z,10.83
2018-06-25T07:27:32.855Z,13.13
2018-06-25T07:30:01.940Z,9.53
2018-06-25T07:32:30.898Z,16.70
2018-06-25T07:34:59.673Z,11.87
2018-06-25T07:37:30.366Z,11.73
2018-06-25T07:39:59.631Z,14.23
2018-06-25T07:42:28.578Z,12.13
2018-06-25T07:44:57.745Z,10.13
2018-06-25T07:47:26.807Z,10.80
2018-06-25T07:49:55.739Z,10.93
2018-06-25T07:52:24.560Z,8.60
2018-06-25T07:54:53.706Z,8.07
2018-06-25T07:57:22.488Z,7.20
2018-06-25T07:59:54.304Z,6.43
2018-06-25T08:02:23.210Z,7.00
2018-06-25T08:04:52.105Z,5.87
2018-06-25T08:07:21.032Z,7.43
2018-06-25T08:09:49.884Z,7.43
2018-06-25T08:12:18.703Z,6.70
2018-06-25T08:14:47.554Z,7.00
2018-06-25T08:17:16.466Z,7.73
2018-06-25T08:19:45.700Z,7.83
2018-06-25T08:22:14.536Z,7.87
2018-06-25T08:24:51.179Z,7.10
2018-06-25T08:27:20.098Z,9.23
2018-06-25T08:29:49.185Z,7.63
2018-06-25T08:32:18.169Z,7.97
2018-06-25T08:34:47.155Z,8.68
2018-06-25T08:37:16.140Z,9.60
2018-06-25T08:39:45.862Z,7.60
2018-06-25T08:42:14.777Z,9.83
2018-06-25T08:44:45.221Z,11.60
2018-06-25T08:47:12.699Z,7.03
2018-06-25T08:49:41.615Z,6.63
2018-06-25T08:52:12.659Z,5.07
2018-06-25T08:54:41.986Z,5.70
2018-06-25T08:57:11.152Z,6.60
2018-06-25T08:59:40.020Z,4.30
2018-06-25T09:02:08.941Z,4.33
2018-06-25T09:04:37.810Z,3.80
2018-06-25T09:07:06.837Z,5.15
2018-06-25T09:09:40.750Z,6.03
2018-06-25T09:12:09.649Z,8.77
2018-06-25T09:14:38.549Z,7.17
2018-06-25T09:17:07.420Z,11.37
2018-06-25T09:19:36.317Z,10.80
2018-06-25T09:22:05.180Z,10.17
2018-06-25T09:24:34.063Z,7.80
2018-06-25T09:27:02.973Z,9.97
2018-06-25T09:29:31.876Z,9.40
2018-06-25T09:32:00.961Z,10.30
2018-06-25T09:34:49.075Z,6.63
2018-06-25T09:37:18.909Z,5.43
2018-06-25T09:39:49.245Z,5.90
2018-06-25T09:42:18.224Z,6.53
2018-06-25T09:44:47.145Z,3.90
2018-06-25T09:47:16.071Z,4.07
2018-06-25T09:49:44.897Z,4.73
2018-06-25T09:52:13.799Z,7.40
2018-06-25T09:54:42.773Z,5.93
2018-06-25T09:57:11.617Z,3.93
2018-06-25T09:59:40.574Z,6.03
2018-06-25T10:02:09.455Z,7.17
2018-06-25T10:04:38.377Z,6.13
2018-06-25T10:07:07.410Z,4.20
2018-06-25T10:09:36.193Z,5.20
2018-06-25T10:12:05.137Z,3.10
2018-06-25T10:14:33.935Z,5.43
2018-06-25T10:17:03.042Z,7.83
2018-06-25T10:19:31.983Z,5.33
2018-06-25T10:22:03.968Z,5.00
2018-06-25T10:24:32.851Z,7.50
2018-06-25T10:27:01.702Z,3.77
2018-06-25T10:29:30.613Z,5.03
2018-06-25T10:31:59.516Z,6.13
2018-06-25T10:34:28.470Z,6.53
2018-06-25T10:36:57.375Z,5.73
2018-06-25T10:39:28.244Z,4.93
2018-06-25T10:41:57.196Z,5.80
2018-06-25T10:44:26.025Z,4.27
2018-06-25T10:46:54.883Z,4.75
2018-06-25T10:49:23.736Z,6.47
2018-06-25T10:51:52.605Z,5.15
2018-06-25T10:54:21.467Z,8.00
2018-06-25T10:56:50.326Z,4.95
2018-06-25T10:59:19.283Z,5.17
2018-06-25T11:01:48.056Z,3.80
2018-06-25T11:04:16.905Z,4.08
2018-06-25T11:06:45.724Z,5.75
2018-06-25T11:09:14.559Z,3.95
2018-06-25T11:11:43.430Z,4.85
2018-06-25T11:14:12.287Z,4.62
2018-06-25T11:16:41.128Z,5.83
2018-06-25T11:19:11.145Z,3.50
2018-06-25T11:21:39.869Z,4.08
2018-06-25T11:24:08.690Z,4.22
2018-06-25T11:27:32.443Z,3.45
2018-06-25T11:30:01.147Z,3.92
2018-06-25T11:32:30.000Z,4.72
2018-06-25T11:34:58.831Z,4.17
2018-06-25T11:37:27.653Z,3.15
2018-06-25T11:40:45.439Z,3.00
2018-06-25T11:43:14.298Z,3.42
2018-06-25T11:45:43.120Z,4.10
2018-06-25T11:48:12.164Z,5.58
2018-06-25T11:50:43.133Z,3.72
2018-06-25T11:53:12.164Z,5.67
2018-06-25T11:55:41.054Z,4.75
2018-06-25T11:58:09.884Z,4.10
2018-06-25T12:00:38.758Z,2.62
2018-06-25T12:03:08.011Z,4.92
2018-06-25T12:05:36.747Z,3.50
2018-06-25T12:08:05.571Z,6.10
2018-06-25T12:10:34.486Z,3.67
2018-06-25T12:13:03.312Z,3.65
2018-06-25T12:15:32.150Z,2.83
2018-06-25T12:18:01.013Z,3.85
2018-06-25T12:20:29.854Z,5.35
2018-06-25T12:22:58.685Z,3.90
2018-06-25T12:25:27.488Z,4.45
2018-06-25T12:27:56.390Z,3.72
2018-06-25T12:30:25.254Z,4.62
2018-06-25T12:32:54.095Z,5.78
2018-06-25T12:35:22.969Z,4.25
2018-06-25T12:37:51.827Z,3.80
2018-06-25T12:40:20.625Z,2.42
2018-06-25T12:42:49.453Z,2.08
2018-06-25T12:45:18.302Z,4.45
2018-06-25T12:47:47.110Z,5.00
2018-06-25T12:50:15.950Z,4.45
2018-06-25T12:52:44.978Z,2.30
2018-06-25T12:55:13.863Z,4.15
2018-06-25T12:57:42.666Z,3.83
2018-06-25T13:00:11.568Z,2.42
2018-06-25T13:02:40.388Z,4.72
2018-06-25T13:05:09.235Z,2.55
2018-06-25T13:07:38.100Z,3.77
2018-06-25T13:10:07.236Z,2.35
2018-06-25T13:12:36.084Z,2.35
2018-06-25T13:15:08.964Z,2.30
2018-06-25T13:17:37.796Z,2.70
2018-06-25T13:20:06.712Z,3.17
2018-06-25T13:22:35.529Z,1.70
2018-06-25T13:25:04.471Z,2.35
2018-06-25T13:27:33.314Z,2.90
2018-06-25T13:30:02.660Z,3.70
2018-06-25T13:32:31.497Z,3.62
2018-06-25T13:35:00.346Z,2.45
2018-06-25T13:37:29.228Z,3.33
2018-06-25T13:39:58.075Z,2.87
2018-06-25T13:42:26.903Z,2.72
2018-06-25T13:44:55.762Z,3.98
2018-06-25T13:47:24.614Z,4.25
2018-06-25T13:49:53.468Z,2.70
2018-06-25T13:52:22.699Z,3.50
2018-06-25T13:54:51.621Z,3.83
2018-06-25T13:57:20.607Z,2.58
2018-06-25T13:59:49.464Z,2.92
2018-06-25T14:02:18.352Z,2.77
2018-06-25T14:04:47.208Z,3.10
2018-06-25T14:07:16.062Z,2.90
2018-06-25T14:09:44.910Z,3.15
2018-06-25T14:12:13.842Z,2.85
2018-06-25T14:14:42.809Z,3.37
2018-06-25T14:17:11.693Z,2.62
2018-06-25T14:19:47.922Z,4.92
2018-06-25T14:22:16.829Z,3.52
2018-06-25T14:25:01.739Z,4.12
2018-06-25T14:27:48.471Z,3.98
2018-06-25T14:30:35.304Z,4.37
2018-06-25T14:33:04.766Z,3.05
2018-06-25T14:35:33.630Z,2.90
2018-06-25T14:38:02.570Z,4.33
2018-06-25T14:40:31.673Z,4.57
2018-06-25T14:43:00.449Z,1.80
2018-06-25T14:45:29.298Z,3.33
2018-06-25T14:47:58.207Z,2.60
2018-06-25T14:50:27.019Z,3.03
2018-06-25T14:52:55.894Z,2.85
2018-06-25T14:55:24.807Z,2.45
2018-06-25T14:57:53.644Z,3.62
2018-06-25T15:00:22.499Z,3.47
2018-06-25T15:02:57.225Z,2.95
2018-06-25T15:05:26.069Z,5.70
2018-06-25T15:07:54.900Z,2.47
2018-06-25T15:10:23.771Z,3.45
2018-06-25T15:12:52.602Z,3.72
2018-06-25T15:15:21.455Z,2.95
2018-06-25T15:17:50.354Z,2.75
2018-06-25T15:20:19.182Z,4.03
2018-06-25T15:22:48.039Z,2.02
2018-06-25T15:25:34.747Z,3.17
2018-06-25T15:28:03.632Z,2.92
2018-06-25T15:30:32.532Z,2.77
2018-06-25T15:33:01.378Z,2.33
2018-06-25T15:35:30.217Z,3.62
2018-06-25T15:37:59.117Z,2.15
2018-06-25T15:40:27.886Z,3.20
2018-06-25T15:42:56.756Z,1.87
2018-06-25T15:45:25.621Z,1.90
2018-06-25T15:48:00.829Z,3.72
2018-06-25T15:50:29.648Z,3.23
2018-06-25T15:52:58.568Z,2.52
2018-06-25T15:55:27.453Z,3.05
2018-06-25T15:57:56.312Z,1.93
2018-06-25T16:00:25.158Z,2.37
2018-06-25T16:02:54.007Z,3.62
2018-06-25T16:05:22.848Z,2.60
2018-06-25T16:07:51.813Z,3.45
2018-06-25T16:10:20.737Z,4.62
2018-06-25T16:12:49.612Z,4.47
2018-06-25T16:15:18.454Z,2.30
2018-06-25T16:17:47.389Z,3.23
2018-06-25T16:20:16.223Z,2.83
2018-06-25T16:22:45.089Z,5.95
2018-06-25T16:25:13.962Z,4.33
2018-06-25T16:27:42.854Z,3.20
2018-06-25T16:30:11.673Z,4.55
2018-06-25T16:32:46.453Z,2.67
2018-06-25T16:35:15.649Z,3.90
2018-06-25T16:37:44.811Z,2.17
2018-06-25T16:40:13.671Z,2.20
2018-06-25T16:42:42.548Z,4.37
2018-06-25T16:45:11.432Z,3.07
2018-06-25T16:47:40.274Z,3.35
2018-06-25T16:50:09.138Z,1.80
2018-06-25T16:52:37.999Z,1.70
2018-06-25T16:55:06.904Z,2.63
2018-06-25T16:57:37.576Z,3.25
2018-06-25T17:00:06.762Z,3.43
2018-06-25T17:02:35.624Z,1.98
2018-06-25T17:05:04.495Z,2.10
2018-06-25T17:07:33.353Z,3.70
2018-06-25T17:10:02.195Z,3.03
2018-06-25T17:12:31.077Z,4.27
2018-06-25T17:14:59.928Z,2.93
2018-06-25T17:17:28.755Z,3.63
2018-06-25T17:19:57.628Z,4.57
2018-06-25T17:22:26.471Z,4.45
2018-06-25T17:24:55.381Z,3.87
2018-06-25T17:27:24.219Z,3.97
2018-06-25T17:29:53.084Z,2.30
2018-06-25T17:32:21.937Z,3.93
2018-06-25T17:34:50.789Z,6.73
2018-06-25T17:37:23.039Z,4.37
2018-06-25T17:39:51.935Z,3.97
2018-06-25T17:42:20.810Z,4.33
2018-06-25T17:44:49.659Z,3.43
2018-06-25T17:47:18.515Z,4.03
2018-06-25T17:49:47.377Z,6.77
2018-06-25T17:52:16.195Z,6.77
2018-06-25T17:54:45.115Z,4.87
2018-06-25T17:57:13.872Z,4.03
2018-06-25T17:59:42.729Z,6.47
2018-06-25T18:02:11.552Z,5.90
2018-06-25T18:04:58.569Z,3.63
2018-06-25T18:07:27.396Z,5.47
2018-06-25T18:09:56.234Z,6.30
2018-06-25T18:12:25.069Z,6.20
2018-06-25T18:14:53.917Z,5.20
2018-06-25T18:17:22.773Z,5.83
2018-06-25T18:19:51.600Z,4.50
2018-06-25T18:22:20.440Z,7.97
2018-06-25T18:24:49.296Z,6.67
2018-06-25T18:27:18.150Z,6.57
2018-06-25T18:29:46.989Z,7.97
2018-06-25T18:32:15.823Z,7.13
2018-06-25T18:34:44.666Z,9.17
2018-06-25T18:37:13.545Z,5.20
2018-06-25T18:39:42.378Z,6.63
2018-06-25T18:42:11.236Z,6.93
2018-06-25T18:44:40.132Z,6.37
2018-06-25T18:47:08.951Z,6.10
2018-06-25T18:49:44.173Z,6.60
2018-06-25T18:52:13.039Z,6.97
2018-06-25T18:54:41.855Z,6.93
2018-06-25T18:57:10.760Z,5.93
2018-06-25T18:59:39.602Z,8.10
2018-06-25T19:02:08.462Z,7.07
2018-06-25T19:04:37.318Z,8.57
2018-06-25T19:07:06.197Z,6.07
2018-06-25T19:09:35.083Z,8.23
2018-06-25T19:12:07.078Z,8.20
2018-06-25T19:14:35.918Z,7.10
2018-06-25T19:17:04.837Z,6.73
2018-06-25T19:19:33.720Z,7.37
2018-06-25T19:22:02.562Z,9.20
2018-06-25T19:24:31.413Z,8.13
2018-06-25T19:27:00.260Z,8.73
2018-06-25T19:29:29.108Z,7.67
2018-06-25T19:31:57.937Z,9.90
2018-06-25T19:34:28.191Z,8.43
2018-06-25T19:36:57.027Z,10.77
2018-06-25T19:39:25.871Z,7.47
2018-06-25T19:41:54.751Z,9.57
2018-06-25T19:44:23.618Z,8.53
2018-06-25T19:46:52.562Z,8.87
2018-06-25T19:49:21.338Z,7.20
2018-06-25T19:51:51.163Z,10.47
2018-06-25T19:54:20.051Z,14.63
2018-06-25T19:56:49.020Z,8.93
2018-06-25T19:59:17.894Z,7.90
2018-06-25T20:01:46.814Z,9.33
2018-06-25T20:04:15.739Z,10.65
2018-06-25T20:06:44.588Z,9.67
2018-06-25T20:09:13.732Z,7.70
2018-06-25T20:11:42.672Z,8.97
2018-06-25T20:14:11.559Z,9.80
2018-06-25T20:16:40.496Z,9.23
2018-06-25T20:19:09.439Z,8.23
2018-06-25T20:21:38.234Z,8.30
2018-06-25T20:24:07.066Z,8.70
2018-06-25T20:26:35.942Z,8.28
2018-06-25T20:29:05.139Z,10.07
2018-06-25T20:31:33.995Z,12.30
2018-06-25T20:34:03.019Z,9.83
2018-06-25T20:36:32.716Z,9.07
2018-06-25T20:39:01.613Z,11.37
2018-06-25T20:41:30.495Z,10.73
2018-06-25T20:43:59.501Z,9.70
2018-06-25T20:46:28.460Z,9.55
2018-06-25T20:48:57.327Z,10.82
2018-06-25T20:51:26.215Z,8.47
2018-06-25T20:53:55.056Z,10.97
2018-06-25T20:56:23.922Z,9.90
2018-06-25T20:58:52.899Z,8.87
2018-06-25T21:01:21.843Z,10.63
2018-06-25T21:03:50.711Z,9.53
2018-06-25T21:06:19.649Z,9.67
2018-06-25T21:08:48.420Z,9.57
2018-06-25T21:11:17.266Z,11.37
2018-06-25T21:13:46.101Z,11.70
2018-06-25T21:16:14.960Z,9.43
2018-06-25T21:18:44.057Z,11.57
2018-06-25T21:21:12.947Z,12.07
2018-06-25T21:24:17.781Z,5.87
2018-06-25T21:26:46.587Z,9.07
2018-06-25T21:29:15.461Z,15.90
2018-06-25T21:31:44.350Z,12.43
2018-06-25T21:34:13.241Z,9.87
2018-06-25T21:36:42.110Z,11.67
2018-06-25T21:39:11.035Z,14.60
2018-06-25T21:41:39.907Z,9.13
2018-06-25T21:44:08.756Z,13.63
2018-06-25T21:46:39.147Z,13.73
2018-06-25T21:49:08.012Z,12.87
2018-06-25T21:51:36.901Z,9.47
2018-06-25T21:54:05.794Z,12.20
2018-06-25T21:56:34.664Z,9.10
2018-06-25T21:59:03.527Z,10.45
2018-06-25T22:01:32.365Z,13.33
2018-06-25T22:04:01.261Z,13.53
2018-06-25T22:06:30.122Z,7.77
2018-06-25T22:09:08.149Z,13.08
2018-06-25T22:11:37.001Z,7.53
2018-06-25T22:14:05.937Z,9.93
2018-06-25T22:16:34.874Z,11.83
2018-06-25T22:19:03.735Z,16.23
2018-06-25T22:21:32.610Z,10.43
2018-06-25T22:24:01.538Z,14.50
2018-06-25T22:26:30.392Z,14.50
2018-06-25T22:28:59.251Z,11.27
2018-06-25T22:31:28.122Z,11.00
2018-06-25T22:33:56.948Z,11.40
2018-06-25T22:36:25.798Z,8.57
2018-06-25T22:38:54.635Z,12.23
2018-06-25T22:41:23.676Z,9.00
2018-06-25T22:43:52.520Z,13.97
2018-06-25T22:46:21.388Z,12.87
2018-06-25T22:48:50.209Z,12.18
2018-06-25T22:51:20.634Z,12.33
2018-06-25T22:53:49.509Z,11.13
2018-06-25T22:56:18.388Z,9.73
2018-06-25T22:58:47.235Z,12.27
2018-06-25T23:01:16.092Z,14.13
2018-06-25T23:03:45.042Z,11.50
2018-06-25T23:06:13.864Z,16.27
2018-06-25T23:08:42.724Z,11.57
2018-06-25T23:11:11.915Z,14.23
2018-06-25T23:13:40.969Z,12.83
2018-06-25T23:16:09.841Z,12.47
2018-06-25T23:18:38.721Z,14.13
2018-06-25T23:21:07.883Z,8.87
2018-06-25T23:23:36.735Z,9.77
2018-06-25T23:26:05.619Z,14.77
2018-06-25T23:28:34.499Z,11.73
2018-06-25T23:31:03.342Z,11.87
2018-06-25T23:33:32.205Z,11.23
2018-06-25T23:36:01.182Z,17.30
2018-06-25T23:38:30.069Z,12.07
2018-06-25T23:40:58.936Z,11.95
2018-06-25T23:43:27.775Z,12.57
2018-06-25T23:45:56.604Z,10.20
2018-06-25T23:48:25.454Z,13.83
2018-06-25T23:50:54.313Z,10.00
2018-06-25T23:53:23.150Z,11.53
2018-06-25T23:55:51.989Z,10.00
2018-06-25T23:58:20.917Z,10.07
